Aeroporto :
LOGIN :

Iscrizione | Disclaimer

   EN    FR    IT 

 










Sommario :    VFR   VFR Marginale   IFR   IFR Intensivo   IFR Molto Intensivo
Visibilità : 
Base nubi : 
>= 8 km
>= 3000ft
5 / 8 km
1000 / 3000 ft
1500m / 5 km
500 / 1000 ft
800 / 1500m
200 / 500 ft
< 800m
< 200 ft
Simboli :   Temporali  Nebbia  Neve Forte  Precipitazioni Forti  Vento > 20 kt
SIGMETs :   Varie  Temporali  Ghiacco  Turbolenza  Onda orograficha  Ceneri Vulcaniche






- Altitudine del aeroporto : 1273 ft
- Codice IATA : LJU


LJLJ - Ljubljana

ULTIMO METAR :
  • 192030Z 29003KT 9999 FEW041 BKN180 M03/M04 Q1020 NOSIG

METARs OBSOLETI :
  • 192000Z 28002KT CAVOK M02/M04 Q1020 NOSIG
  • 191930Z VRB02KT CAVOK M03/M04 Q1020 NOSIG
  • 191900Z VRB01KT 9999 FEW040 BKN190 M02/M04 Q1020 NOSIG
  • 191830Z 00000KT 9999 FEW040 SCT140 BKN240 M02/M04 Q1020 NOSIG

TAF TAF LJLJ
Valido dal 19 a 18 ore il 20 a 18 ore UTC


191700Z 1918/2018 VRB02KT 9999 FEW040
TEMPO 2012/2018 25010KT



MetMap, La meteo Aeronautica in un colpo d'occhio ! - Copyright ORBIFLY Dicembre 2007 - Disclaimer

ORBIFLY MET'MAP TEAM :

Programmazione e sviluppo : Alexandra Zaïnal
Concezione : Baudouin d'Aumeries
Aiuto per la programmazione : Marc-Olivier Méhu
Supporto tecnico e logistico : Manuel Goepfert
Aiuto per la traduzione : Arnaldo La Scala

Contatto : metmap@orbifly.com




FONTI E CREDITI :

   NOAA